createdAt,value
2019-02-12T00:04:45.813Z,5.52
2019-02-12T00:09:51.318Z,5.50
2019-02-12T00:14:56.759Z,5.53
2019-02-12T00:20:02.309Z,5.62
2019-02-12T00:25:07.696Z,5.75
2019-02-12T00:30:13.141Z,5.87
2019-02-12T00:35:18.480Z,5.95
2019-02-12T00:40:23.835Z,6.00
2019-02-12T00:45:29.219Z,6.03
2019-02-12T00:50:34.574Z,6.03
2019-02-12T00:55:39.974Z,6.00
2019-02-12T01:00:45.490Z,5.99
2019-02-12T01:05:50.815Z,5.98
2019-02-12T01:10:56.159Z,5.98
2019-02-12T01:16:01.663Z,5.96
2019-02-12T01:21:06.989Z,5.95
2019-02-12T01:26:12.329Z,5.95
2019-02-12T01:31:17.738Z,5.91
2019-02-12T01:36:23.136Z,5.84
2019-02-12T01:41:28.455Z,5.82
2019-02-12T01:46:33.714Z,5.88
2019-02-12T01:51:39.030Z,5.94
2019-02-12T01:56:44.462Z,5.97
2019-02-12T02:01:49.825Z,5.97
2019-02-12T02:06:55.179Z,5.93
2019-02-12T02:12:00.557Z,5.90
2019-02-12T02:17:05.837Z,5.83
2019-02-12T02:22:11.210Z,5.76
2019-02-12T02:27:16.548Z,5.70
2019-02-12T02:32:21.965Z,5.63
2019-02-12T02:37:27.415Z,5.55
2019-02-12T02:42:32.702Z,5.45
2019-02-12T02:47:38.020Z,5.33
2019-02-12T02:52:43.388Z,5.21
2019-02-12T02:57:48.856Z,5.11
2019-02-12T03:02:54.186Z,5.09
2019-02-12T03:07:59.657Z,5.10
2019-02-12T03:13:05.073Z,5.06
2019-02-12T03:18:10.542Z,5.04
2019-02-12T03:23:15.863Z,5.04
2019-02-12T03:28:21.161Z,4.99
2019-02-12T03:33:26.615Z,4.90
2019-02-12T03:38:31.937Z,4.78
2019-02-12T03:43:37.215Z,4.65
2019-02-12T03:48:42.580Z,4.54
2019-02-12T03:53:47.875Z,4.47
2019-02-12T03:58:53.297Z,4.43
2019-02-12T04:03:58.654Z,4.52
2019-02-12T04:09:05.007Z,4.58
2019-02-12T04:14:10.439Z,4.62
2019-02-12T04:19:15.745Z,4.67
2019-02-12T04:24:21.028Z,4.67
2019-02-12T04:29:26.333Z,4.60
2019-02-12T04:34:31.710Z,4.51
2019-02-12T04:39:37.243Z,4.41
2019-02-12T04:44:42.614Z,4.34
2019-02-12T04:49:47.983Z,4.32
2019-02-12T04:54:53.356Z,4.33
2019-02-12T04:59:58.790Z,4.37
2019-02-12T05:05:04.281Z,4.43
2019-02-12T05:10:11.914Z,4.54
2019-02-12T05:15:17.232Z,4.56
2019-02-12T05:20:22.545Z,4.47
2019-02-12T05:25:27.893Z,4.39
2019-02-12T05:30:33.259Z,4.30
2019-02-12T05:35:38.739Z,4.20
2019-02-12T05:40:44.066Z,4.14
2019-02-12T05:45:49.337Z,4.11
2019-02-12T05:50:54.752Z,4.07
2019-02-12T05:56:00.047Z,4.10
2019-02-12T06:01:05.385Z,4.19
2019-02-12T06:06:10.713Z,4.34
2019-02-12T06:11:16.016Z,4.48
2019-02-12T06:16:21.348Z,4.56
2019-02-12T06:21:26.680Z,4.65
2019-02-12T06:26:32.046Z,4.68
2019-02-12T06:31:37.405Z,4.61
2019-02-12T06:36:42.753Z,4.58
2019-02-12T06:41:48.090Z,4.58
2019-02-12T06:46:53.661Z,4.55
2019-02-12T06:51:59.027Z,4.49
2019-02-12T06:57:04.421Z,4.44
2019-02-12T07:03:03.433Z,4.44
2019-02-12T07:09:16.145Z,4.46
2019-02-12T07:14:51.193Z,4.55
2019-02-12T07:20:40.935Z,4.72
2019-02-12T07:26:42.514Z,4.99
2019-02-12T07:32:37.874Z,5.36
2019-02-12T07:38:27.424Z,5.70
2019-02-12T07:44:36.757Z,6.08
2019-02-12T07:50:53.176Z,6.66
2019-02-12T07:56:28.469Z,7.23
2019-02-12T08:02:33.788Z,8.40
2019-02-12T08:09:01.485Z,10.74
2019-02-12T08:14:54.724Z,11.22
2019-02-12T08:21:07.731Z,10.78
2019-02-12T08:27:08.029Z,10.26
2019-02-12T08:33:03.082Z,10.07
2019-02-12T08:38:51.384Z,10.05
2019-02-12T08:44:28.448Z,9.94
2019-02-12T08:50:03.885Z,9.73
2019-02-12T08:56:04.030Z,9.58
2019-02-12T09:02:48.601Z,9.53
2019-02-12T09:08:38.668Z,9.58
2019-02-12T09:14:16.530Z,9.73
2019-02-12T09:19:45.309Z,10.08
2019-02-12T09:25:54.294Z,10.36
2019-02-12T09:32:07.601Z,10.47
2019-02-12T09:38:24.163Z,10.48
2019-02-12T09:44:26.957Z,10.38
2019-02-12T09:50:26.842Z,10.31
2019-02-12T09:55:51.928Z,10.40
2019-02-12T10:01:47.999Z,10.60
2019-02-12T10:07:30.724Z,10.94
2019-02-12T10:12:59.116Z,11.38
2019-02-12T10:18:44.106Z,11.80
2019-02-12T10:24:26.138Z,12.19
2019-02-12T10:30:19.053Z,12.58
2019-02-12T10:35:24.471Z,12.77
2019-02-12T10:40:29.838Z,12.73
2019-02-12T10:45:35.257Z,12.66
2019-02-12T10:50:40.587Z,12.72
2019-02-12T10:55:46.052Z,12.82
2019-02-12T11:00:51.433Z,12.91
2019-02-12T11:05:57.097Z,12.97
2019-02-12T11:11:02.462Z,12.98
2019-02-12T11:16:08.013Z,12.91
2019-02-12T11:21:13.709Z,12.87
2019-02-12T11:26:19.105Z,12.85
2019-02-12T11:31:24.566Z,12.82
2019-02-12T11:36:29.973Z,12.83
2019-02-12T11:41:37.158Z,12.88
2019-02-12T11:46:42.521Z,12.79
2019-02-12T11:51:47.967Z,12.66
2019-02-12T11:56:53.357Z,12.54
2019-02-12T12:01:58.891Z,12.59
2019-02-12T12:07:04.322Z,12.71
2019-02-12T12:12:09.719Z,12.79
2019-02-12T12:17:15.034Z,12.90
2019-02-12T12:22:20.387Z,13.05
2019-02-12T12:27:25.736Z,13.15
2019-02-12T12:32:31.173Z,13.18
2019-02-12T12:37:36.473Z,13.25
2019-02-12T12:42:41.998Z,13.17
2019-02-12T12:47:47.364Z,13.10
2019-02-12T12:52:52.762Z,12.96
2019-02-12T12:57:58.512Z,12.77
2019-02-12T13:03:03.912Z,12.59
2019-02-12T13:08:09.373Z,12.73
2019-02-12T13:13:14.698Z,13.00
2019-02-12T13:18:20.031Z,13.13
2019-02-12T13:23:25.399Z,13.17
2019-02-12T13:28:30.875Z,13.06
2019-02-12T13:33:36.246Z,12.80
2019-02-12T13:38:41.535Z,12.55
2019-02-12T13:43:46.871Z,12.45
2019-02-12T13:48:52.554Z,12.48
2019-02-12T13:53:57.968Z,12.52
2019-02-12T13:59:03.262Z,12.61
2019-02-12T14:04:08.805Z,12.70
2019-02-12T14:09:14.281Z,12.79
2019-02-12T14:14:19.809Z,12.79
2019-02-12T14:19:25.158Z,12.75
2019-02-12T14:24:30.491Z,12.66
2019-02-12T14:29:36.061Z,12.43
2019-02-12T14:34:41.508Z,12.17
2019-02-12T14:39:46.915Z,11.90
2019-02-12T14:44:52.379Z,11.78
2019-02-12T14:49:58.024Z,11.83
2019-02-12T14:55:03.355Z,11.93
2019-02-12T15:00:12.030Z,12.00
2019-02-12T15:05:17.370Z,11.95
2019-02-12T15:10:22.738Z,11.84
2019-02-12T15:15:28.089Z,11.68
2019-02-12T15:20:33.547Z,11.49
2019-02-12T15:25:41.992Z,11.28
2019-02-12T15:30:45.927Z,11.06
2019-02-12T15:35:51.403Z,10.94
2019-02-12T15:40:59.079Z,10.88
2019-02-12T15:46:04.434Z,10.86
2019-02-12T15:51:09.714Z,10.75
2019-02-12T15:56:15.116Z,10.59
2019-02-12T16:01:20.497Z,10.39
2019-02-12T16:06:25.813Z,10.20
2019-02-12T16:11:31.089Z,10.02
2019-02-12T16:16:37.676Z,9.88
2019-02-12T16:21:43.111Z,9.74
2019-02-12T16:26:48.543Z,9.63
2019-02-12T16:31:53.956Z,9.51
2019-02-12T16:36:59.444Z,9.37
2019-02-12T16:42:04.906Z,9.22
2019-02-12T16:47:10.279Z,9.09
2019-02-12T16:52:20.815Z,8.98
2019-02-12T16:57:22.711Z,8.86
2019-02-12T17:02:28.002Z,8.79
2019-02-12T17:07:33.521Z,8.73
2019-02-12T17:12:39.055Z,8.66
2019-02-12T17:17:44.413Z,8.58
2019-02-12T17:22:49.739Z,8.51
2019-02-12T17:27:55.529Z,8.44
2019-02-12T17:33:01.034Z,8.37
2019-02-12T17:38:06.434Z,8.31
2019-02-12T17:43:14.652Z,8.23
2019-02-12T17:48:19.992Z,8.16
2019-02-12T17:53:25.310Z,8.10
2019-02-12T17:58:30.654Z,8.04
2019-02-12T18:03:36.038Z,7.98
2019-02-12T18:08:44.401Z,7.93
2019-02-12T18:13:48.644Z,7.87
2019-02-12T18:18:54.230Z,7.83
2019-02-12T18:24:00.037Z,7.84
2019-02-12T18:29:08.381Z,7.83
2019-02-12T18:34:13.754Z,7.80
2019-02-12T18:39:19.108Z,7.77
2019-02-12T18:44:24.498Z,7.71
2019-02-12T18:49:29.960Z,7.66
2019-02-12T18:54:35.487Z,7.60
2019-02-12T18:59:40.840Z,7.55
2019-02-12T19:04:46.305Z,7.50
2019-02-12T19:09:51.867Z,7.45
2019-02-12T19:14:57.338Z,7.40
2019-02-12T19:20:02.683Z,7.35
2019-02-12T19:25:08.940Z,7.31
2019-02-12T19:30:16.254Z,7.24
2019-02-12T19:35:23.994Z,7.17
2019-02-12T19:40:29.856Z,7.13
2019-02-12T19:45:35.304Z,7.06
2019-02-12T19:50:40.640Z,7.01
2019-02-12T19:55:46.035Z,6.95
2019-02-12T20:00:51.454Z,6.89
2019-02-12T20:05:56.966Z,6.85
2019-02-12T20:11:02.344Z,6.81
2019-02-12T20:16:07.683Z,6.76
2019-02-12T20:21:13.128Z,6.71
2019-02-12T20:26:18.490Z,6.68
2019-02-12T20:31:23.929Z,6.66
2019-02-12T20:36:29.323Z,6.61
2019-02-12T20:41:34.748Z,6.57
2019-02-12T20:46:40.230Z,6.55
2019-02-12T20:51:45.551Z,6.53
2019-02-12T20:56:50.889Z,6.50
2019-02-12T21:01:56.288Z,6.43
2019-02-12T21:07:01.820Z,6.41
2019-02-12T21:12:07.308Z,6.39
2019-02-12T21:17:12.730Z,6.38
2019-02-12T21:22:18.345Z,6.32
2019-02-12T21:27:23.878Z,6.27
2019-02-12T21:32:29.451Z,6.21
2019-02-12T21:37:34.771Z,6.14
2019-02-12T21:42:40.271Z,6.09
2019-02-12T21:47:45.914Z,6.04
2019-02-12T21:52:51.368Z,5.97
2019-02-12T21:57:56.761Z,5.91
2019-02-12T22:03:02.214Z,5.87
2019-02-12T22:08:07.977Z,5.81
2019-02-12T22:13:13.783Z,5.77
2019-02-12T22:18:19.192Z,5.73
2019-02-12T22:23:28.323Z,5.69
2019-02-12T22:28:33.728Z,5.63
2019-02-12T22:33:39.178Z,5.57
2019-02-12T22:38:44.464Z,5.55
2019-02-12T22:43:49.816Z,5.54
2019-02-12T22:48:55.276Z,5.54
2019-02-12T22:54:00.657Z,5.53
2019-02-12T22:59:06.067Z,5.54
2019-02-12T23:04:11.442Z,5.58
2019-02-12T23:09:17.874Z,5.65
2019-02-12T23:14:23.247Z,5.68
2019-02-12T23:19:28.595Z,5.70
2019-02-12T23:24:34.005Z,5.71
2019-02-12T23:29:39.361Z,5.69
2019-02-12T23:34:44.708Z,5.66
2019-02-12T23:39:50.112Z,5.62
2019-02-12T23:44:57.722Z,5.60
2019-02-12T23:50:03.144Z,5.60
2019-02-12T23:55:08.724Z,5.63
